Time;durP1;ratioP1;P1;durP2;ratioP2;P2;SDS_P1;SDS_P2;PMS_P1;PMS_P2;Temp;Humidity;BMP_temperature;BMP_pressure;BME280_temperature;BME280_humidity;BME280_pressure;Samples;Min_cycle;Max_cycle;Signal;HPM_P1;HPM_P2
2023/08/25 00:01:04;;;;;;;4.60;4.07;;;20.90;29.60;;;;;;6341895;22;20385;-62
2023/08/25 00:03:29;;;;;;;6.00;3.77;;;20.80;43.10;;;;;;6341812;22;20403;-62
2023/08/25 00:05:55;;;;;;;4.07;3.50;;;20.90;18.10;;;;;;6340983;22;20159;-62
2023/08/25 00:08:21;;;;;;;3.50;3.20;;;20.90;9.80;;;;;;6341473;22;20132;-61
2023/08/25 00:10:47;;;;;;;4.50;3.73;;;20.80;1.00;;;;;;6341558;22;20215;-62
2023/08/25 00:13:14;;;;;;;4.73;4.30;;;20.80;1.00;;;;;;6315178;22;20432;-62
2023/08/25 00:15:41;;;;;;;3.57;3.10;;;20.80;4.90;;;;;;6343014;22;20377;-62
2023/08/25 00:18:07;;;;;;;4.57;4.17;;;20.80;1.70;;;;;;6314816;22;20378;-61
2023/08/25 00:20:33;;;;;;;3.97;3.60;;;20.80;7.90;;;;;;6341764;22;20450;-62
2023/08/25 00:22:58;;;;;;;4.67;3.77;;;20.80;1.00;;;;;;6342394;22;20622;-62
2023/08/25 00:25:24;;;;;;;4.60;4.27;;;20.80;1.00;;;;;;6342416;22;20157;-61
2023/08/25 00:27:49;;;;;;;4.60;4.20;;;20.80;10.30;;;;;;6329177;22;20230;-62
2023/08/25 00:30:15;;;;;;;4.07;3.77;;;20.80;18.60;;;;;;6342166;22;20147;-63
2023/08/25 00:32:41;;;;;;;3.77;3.20;;;20.80;30.30;;;;;;6314071;22;20238;-61
2023/08/25 00:35:08;;;;;;;4.47;3.53;;;20.70;27.50;;;;;;6341846;22;20170;-63
2023/08/25 00:37:34;;;;;;;8.30;4.70;;;20.70;40.30;;;;;;6301991;22;20162;-63
2023/08/25 00:39:59;;;;;;;6.73;4.53;;;20.70;56.30;;;;;;6341115;22;20702;-63
2023/08/25 00:42:25;;;;;;;5.10;3.60;;;20.60;60.00;;;;;;6314300;22;20157;-62
2023/08/25 00:44:51;;;;;;;5.90;4.27;;;20.60;94.20;;;;;;6340882;22;20200;-62
2023/08/25 00:47:17;;;;;;;4.60;4.00;;;20.60;99.90;;;;;;6338957;22;20441;-62
2023/08/25 00:49:43;;;;;;;3.90;3.47;;;20.70;75.60;;;;;;6339889;22;20426;-62
2023/08/25 00:52:08;;;;;;;3.67;3.30;;;20.70;96.50;;;;;;6340039;22;20389;-62
2023/08/25 00:54:34;;;;;;;4.50;3.57;;;20.60;93.10;;;;;;6287009;22;20484;-62
2023/08/25 00:57:02;;;;;;;4.63;3.93;;;20.60;99.90;;;;;;6312621;22;20215;-62
2023/08/25 00:59:29;;;;;;;5.10;4.27;;;20.50;99.90;;;;;;6339377;22;20123;-62
2023/08/25 01:01:56;;;;;;;5.20;3.97;;;20.50;99.90;;;;;;6312578;22;20353;-61
2023/08/25 01:04:21;;;;;;;3.60;3.30;;;20.50;99.90;;;;;;6340690;22;20428;-62
2023/08/25 01:06:48;;;;;;;4.73;3.20;;;20.50;99.90;;;;;;6341670;22;20381;-62
2023/08/25 01:09:14;;;;;;;5.90;3.40;;;20.50;99.90;;;;;;6314414;22;20434;-63
2023/08/25 01:12:08;;;;;;;4.53;3.97;;;20.50;99.90;;;;;;6341712;22;20417;-63
2023/08/25 01:14:58;;;;;;;3.30;3.00;;;20.50;99.90;;;;;;6314545;22;20828;-63
2023/08/25 01:17:37;;;;;;;3.43;3.13;;;20.50;99.90;;;;;;6340618;22;20357;-62
2023/08/25 01:20:07;;;;;;;3.80;3.50;;;20.60;99.90;;;;;;6341081;22;20357;-62
2023/08/25 01:22:39;;;;;;;4.73;3.17;;;20.60;99.90;;;;;;6341923;22;20385;-62
2023/08/25 01:25:23;;;;;;;4.20;3.43;;;20.60;86.80;;;;;;6313699;22;20415;-62
2023/08/25 01:27:50;;;;;;;4.93;4.43;;;20.60;31.90;;;;;;6341960;22;20381;-62
2023/08/25 01:30:15;;;;;;;4.20;3.67;;;20.60;22.40;;;;;;6340917;22;20392;-63
2023/08/25 01:32:41;;;;;;;3.90;3.17;;;20.60;36.60;;;;;;6340409;22;20421;-62
2023/08/25 01:35:08;;;;;;;3.90;3.50;;;20.60;48.60;;;;;;6341275;22;20390;-62
2023/08/25 01:37:42;;;;;;;3.47;3.17;;;20.70;45.10;;;;;;6287603;22;20186;-63
2023/08/25 01:40:17;;;;;;;3.43;3.07;;;20.70;48.50;;;;;;6313398;22;20483;-62
2023/08/25 01:42:46;;;;;;;4.33;3.33;;;20.70;1.00;;;;;;6313030;22;20702;-62
2023/08/25 01:45:11;;;;;;;3.63;2.97;;;20.70;1.00;;;;;;6312676;22;20400;-63
2023/08/25 01:47:38;;;;;;;4.80;3.50;;;20.80;1.00;;;;;;6310444;22;20385;-62
2023/08/25 01:50:06;;;;;;;3.90;3.07;;;20.80;1.00;;;;;;6310885;22;20204;-61
2023/08/25 01:52:33;;;;;;;4.13;3.37;;;20.70;1.00;;;;;;6310375;22;20451;-63
2023/08/25 01:54:58;;;;;;;5.83;3.97;;;20.70;1.00;;;;;;6312210;22;20756;-63
2023/08/25 01:57:24;;;;;;;5.70;3.30;;;20.60;1.00;;;;;;6339111;22;20385;-62
2023/08/25 01:59:50;;;;;;;3.57;3.27;;;20.60;1.00;;;;;;6312072;22;20158;-62
2023/08/25 02:02:15;;;;;;;4.30;3.90;;;20.70;1.00;;;;;;6338758;22;20151;-62
2023/08/25 02:04:41;;;;;;;3.90;3.47;;;20.60;15.20;;;;;;6337573;22;20147;-63
2023/08/25 02:07:07;;;;;;;6.13;3.70;;;20.60;1.00;;;;;;6338689;22;20151;-63
2023/08/25 02:09:32;;;;;;;4.33;2.73;;;20.60;16.30;;;;;;6339939;22;20424;-62
2023/08/25 02:11:58;;;;;;;6.70;4.10;;;20.50;50.20;;;;;;6340665;22;20163;-62
2023/08/25 02:14:24;;;;;;;3.63;3.33;;;20.50;63.10;;;;;;6340004;22;20443;-63
2023/08/25 02:16:49;;;;;;;5.67;3.87;;;20.50;72.00;;;;;;6340947;22;20128;-62
2023/08/25 02:19:15;;;;;;;4.00;3.37;;;20.50;86.60;;;;;;6342882;22;20179;-62
2023/08/25 02:21:41;;;;;;;5.13;3.73;;;20.50;96.00;;;;;;6342555;22;20151;-62
2023/08/25 02:24:06;;;;;;;3.40;3.10;;;20.50;89.20;;;;;;6342356;22;20565;-61
2023/08/25 02:26:32;;;;;;;3.60;3.30;;;20.50;83.40;;;;;;6343225;22;20478;-62
2023/08/25 02:28:57;;;;;;;4.97;4.03;;;20.50;80.90;;;;;;6342586;22;20453;-62
2023/08/25 02:31:23;;;;;;;4.90;3.97;;;20.60;34.50;;;;;;6342321;22;20479;-62
2023/08/25 02:33:49;;;;;;;4.07;2.63;;;20.50;47.00;;;;;;6343041;22;20174;-62
2023/08/25 02:36:14;;;;;;;5.40;4.63;;;20.50;43.20;;;;;;6342567;22;20289;-62
2023/08/25 02:38:40;;;;;;;4.03;3.63;;;20.50;36.10;;;;;;6342603;22;20217;-62
2023/08/25 02:41:06;;;;;;;3.63;3.33;;;20.50;61.60;;;;;;6343309;22;20210;-63
2023/08/25 02:43:31;;;;;;;4.60;3.20;;;20.50;41.50;;;;;;6343064;22;20183;-63
2023/08/25 02:46:00;;;;;;;4.93;3.50;;;20.50;56.90;;;;;;6341966;22;20151;-62
2023/08/25 02:48:26;;;;;;;4.03;3.60;;;20.50;26.40;;;;;;6342595;22;20216;-62
2023/08/25 02:50:52;;;;;;;6.03;3.37;;;20.50;31.10;;;;;;6341461;22;20393;-63
2023/08/25 02:53:18;;;;;;;3.47;3.10;;;20.50;27.10;;;;;;6315126;22;20461;-62
2023/08/25 02:55:43;;;;;;;3.73;3.33;;;20.50;42.70;;;;;;6340401;22;20135;-63
2023/08/25 02:58:09;;;;;;;3.73;3.43;;;20.50;59.80;;;;;;6341593;22;20234;-62
2023/08/25 03:00:34;;;;;;;4.77;3.63;;;20.50;8.70;;;;;;6342319;22;20148;-63
2023/08/25 03:03:00;;;;;;;5.07;4.10;;;20.50;22.80;;;;;;6341461;22;20218;-62
2023/08/25 03:05:26;;;;;;;3.47;2.93;;;20.40;23.10;;;;;;6342169;22;20134;-62
2023/08/25 03:07:53;;;;;;;3.70;3.27;;;20.50;56.40;;;;;;6342278;22;20170;-62
2023/08/25 03:10:18;;;;;;;6.07;4.13;;;20.50;91.40;;;;;;6314537;22;20409;-63
2023/08/25 03:12:44;;;;;;;3.53;3.23;;;20.40;99.90;;;;;;6315694;22;20837;-63
2023/08/25 03:15:10;;;;;;;3.90;3.50;;;20.50;99.90;;;;;;6341692;22;20232;-63
2023/08/25 03:17:36;;;;;;;4.17;3.77;;;20.50;51.00;;;;;;6341293;22;20586;-62
2023/08/25 03:20:02;;;;;;;4.60;3.80;;;20.50;11.70;;;;;;6313950;22;20162;-63
2023/08/25 03:22:28;;;;;;;3.87;3.57;;;20.40;44.90;;;;;;6315497;22;20229;-62
2023/08/25 03:24:54;;;;;;;5.40;4.10;;;20.40;51.70;;;;;;6315226;22;20798;-62
2023/08/25 03:27:20;;;;;;;7.17;3.97;;;20.40;52.00;;;;;;6341551;22;20385;-63
2023/08/25 03:29:46;;;;;;;4.37;3.97;;;20.40;22.60;;;;;;6314675;22;20202;-62
2023/08/25 03:32:11;;;;;;;4.13;3.70;;;20.30;57.00;;;;;;6340929;22;20143;-63
2023/08/25 03:34:38;;;;;;;3.93;3.63;;;20.30;92.30;;;;;;6341711;22;20226;-62
2023/08/25 03:37:05;;;;;;;5.40;4.07;;;20.40;73.30;;;;;;6341823;22;20162;-63
2023/08/25 03:39:32;;;;;;;5.00;4.30;;;20.40;41.80;;;;;;6341588;22;20429;-63
2023/08/25 03:41:57;;;;;;;3.20;2.90;;;20.40;20.40;;;;;;6340750;22;20458;-63
2023/08/25 03:44:23;;;;;;;6.37;4.57;;;20.40;22.30;;;;;;6341825;22;20358;-62
2023/08/25 03:46:49;;;;;;;4.93;4.03;;;20.50;1.00;;;;;;6315143;22;20165;-62
2023/08/25 03:49:15;;;;;;;3.93;3.53;;;20.40;17.40;;;;;;6340931;22;20222;-62
2023/08/25 03:51:40;;;;;;;7.83;4.10;;;20.40;19.10;;;;;;6341110;22;20151;-63
2023/08/25 03:54:06;;;;;;;5.03;4.10;;;20.50;1.00;;;;;;6341295;22;20178;-62
2023/08/25 03:56:32;;;;;;;4.37;4.03;;;20.50;1.00;;;;;;6341977;22;20160;-62
2023/08/25 03:58:58;;;;;;;4.27;3.67;;;20.50;1.00;;;;;;6341583;22;20157;-63
2023/08/25 04:01:24;;;;;;;5.10;4.10;;;20.40;1.00;;;;;;6341342;22;20388;-58
2023/08/25 04:03:49;;;;;;;7.43;4.10;;;20.40;9.10;;;;;;6341665;22;20527;-58
2023/08/25 04:06:15;;;;;;;4.63;4.23;;;20.40;25.70;;;;;;6342407;22;20151;-58
2023/08/25 04:08:41;;;;;;;5.93;3.80;;;20.40;21.80;;;;;;6342052;22;20160;-58
2023/08/25 04:11:07;;;;;;;5.00;4.10;;;20.50;7.80;;;;;;6341497;22;20362;-58
2023/08/25 04:13:32;;;;;;;5.60;4.37;;;20.60;1.00;;;;;;6341899;22;20227;-58
2023/08/25 04:15:59;;;;;;;3.47;3.17;;;20.60;1.00;;;;;;6340432;22;20240;-59
2023/08/25 04:18:25;;;;;;;8.63;4.30;;;20.70;1.00;;;;;;6340949;22;20406;-59
2023/08/25 04:20:51;;;;;;;4.10;3.67;;;20.70;1.00;;;;;;6340161;22;20385;-57
2023/08/25 04:23:17;;;;;;;6.10;4.23;;;20.70;1.00;;;;;;6340114;22;20389;-58
2023/08/25 04:25:43;;;;;;;5.20;3.60;;;20.70;1.00;;;;;;6337659;22;20131;-58
2023/08/25 04:28:08;;;;;;;5.70;4.47;;;20.70;1.00;;;;;;6339749;22;20400;-58
2023/08/25 04:30:34;;;;;;;4.13;3.73;;;20.70;1.00;;;;;;6341318;22;20151;-57
2023/08/25 04:33:00;;;;;;;4.20;3.80;;;20.70;1.00;;;;;;6340156;22;20158;-58
2023/08/25 04:35:26;;;;;;;4.80;4.30;;;20.60;1.00;;;;;;6340534;22;20799;-58
2023/08/25 04:37:51;;;;;;;4.23;3.90;;;20.60;1.00;;;;;;6310939;22;20162;-57
2023/08/25 04:40:18;;;;;;;5.23;4.47;;;20.50;1.00;;;;;;6336647;22;20191;-58
2023/08/25 04:42:45;;;;;;;4.87;4.10;;;20.50;1.00;;;;;;6284599;22;20155;-59
2023/08/25 04:45:12;;;;;;;4.80;4.30;;;20.50;1.00;;;;;;6311664;22;20381;-58
2023/08/25 04:47:38;;;;;;;6.77;4.53;;;20.50;1.00;;;;;;6340219;22;20450;-58
2023/08/25 04:50:07;;;;;;;6.67;3.93;;;20.50;1.00;;;;;;6339273;22;20448;-56
2023/08/25 04:52:34;;;;;;;5.77;4.73;;;20.50;1.00;;;;;;6339728;22;20666;-57
2023/08/25 04:55:07;;;;;;;4.30;3.90;;;20.60;1.00;;;;;;6341067;22;20483;-59
2023/08/25 04:57:34;;;;;;;6.70;3.90;;;20.60;1.00;;;;;;6340435;22;20381;-59
2023/08/25 05:00:05;;;;;;;4.87;4.47;;;20.60;1.00;;;;;;6340731;22;20377;-58
2023/08/25 05:02:31;;;;;;;4.60;3.80;;;20.60;1.00;;;;;;6340359;22;20463;-58
2023/08/25 05:04:56;;;;;;;7.73;4.27;;;20.70;1.00;;;;;;6339479;22;20430;-58
2023/08/25 05:07:22;;;;;;;5.93;4.20;;;20.70;1.00;;;;;;6340736;22;20151;-57
2023/08/25 05:09:48;;;;;;;4.70;3.97;;;20.70;1.00;;;;;;6340773;22;20162;-58
2023/08/25 05:12:13;;;;;;;5.03;4.40;;;20.80;1.00;;;;;;6340854;22;20159;-58
2023/08/25 05:14:39;;;;;;;6.07;4.27;;;20.70;1.00;;;;;;6340136;22;20637;-59
2023/08/25 05:17:05;;;;;;;4.00;3.67;;;20.70;1.00;;;;;;6338915;22;20128;-57
2023/08/25 05:19:30;;;;;;;5.47;4.50;;;20.80;1.00;;;;;;6340179;22;20209;-57
2023/08/25 05:21:56;;;;;;;5.43;4.17;;;20.90;1.00;;;;;;6338149;22;20229;-57
2023/08/25 05:24:24;;;;;;;5.10;3.83;;;20.90;1.00;;;;;;6309881;22;20159;-57
2023/08/25 05:26:53;;;;;;;5.30;3.90;;;20.90;1.00;;;;;;6284175;22;20250;-56
2023/08/25 05:29:23;;;;;;;5.53;4.70;;;21.00;1.00;;;;;;6337720;22;20400;-58
2023/08/25 05:31:49;;;;;;;6.67;3.90;;;21.10;1.00;;;;;;6338580;22;20823;-58
2023/08/25 05:34:15;;;;;;;6.00;4.07;;;21.20;1.00;;;;;;6310402;22;20425;-58
2023/08/25 05:36:42;;;;;;;5.20;4.00;;;21.30;99.90;;;;;;6339968;22;20412;-58
2023/08/25 05:39:08;;;;;;;7.00;4.53;;;21.40;99.90;;;;;;6281865;22;20859;-57
2023/08/25 05:41:34;;;;;;;5.60;4.03;;;21.40;99.90;;;;;;6339925;22;20393;-58
2023/08/25 05:44:03;;;;;;;6.87;4.50;;;21.40;99.90;;;;;;6313461;22;20143;-58
2023/08/25 05:46:30;;;;;;;5.80;4.03;;;21.50;99.90;;;;;;6338801;22;20389;-57
2023/08/25 05:48:56;;;;;;;5.30;4.47;;;21.60;99.90;;;;;;6311870;22;20595;-58
2023/08/25 05:51:22;;;;;;;4.60;4.00;;;21.60;99.90;;;;;;6341264;22;20742;-58
2023/08/25 05:53:48;;;;;;;7.90;4.60;;;21.70;99.90;;;;;;6342227;22;20430;-58
2023/08/25 05:56:14;;;;;;;4.70;4.03;;;21.80;99.90;;;;;;6340760;22;20365;-58
2023/08/25 05:58:41;;;;;;;5.13;4.53;;;21.80;99.90;;;;;;6339874;22;20139;-57
2023/08/25 06:01:07;;;;;;;5.20;4.00;;;21.80;99.90;;;;;;6341700;22;20147;-59
2023/08/25 06:03:33;;;;;;;7.00;4.40;;;21.70;99.90;;;;;;6341026;22;20457;-58
2023/08/25 06:05:59;;;;;;;5.93;4.23;;;21.60;99.90;;;;;;6339835;22;20687;-57
2023/08/25 06:08:25;;;;;;;5.30;4.10;;;21.30;1.00;;;;;;6340792;22;20354;-58
2023/08/25 06:10:54;;;;;;;15.90;5.53;;;21.20;1.00;;;;;;6338597;22;20158;-58
2023/08/25 06:13:20;;;;;;;6.17;4.90;;;21.10;1.00;;;;;;6338586;22;20240;-58
2023/08/25 06:15:46;;;;;;;8.40;4.70;;;21.10;1.00;;;;;;6338345;22;20392;-57
2023/08/25 06:18:12;;;;;;;8.50;4.73;;;21.20;1.00;;;;;;6339331;22;20148;-57
2023/08/25 06:20:41;;;;;;;7.63;4.67;;;21.20;1.00;;;;;;6338651;22;20385;-57
2023/08/25 06:23:08;;;;;;;7.93;4.50;;;21.10;1.00;;;;;;6312576;22;20131;-57
2023/08/25 06:25:33;;;;;;;5.37;4.57;;;21.10;1.00;;;;;;6339205;22;20362;-58
2023/08/25 06:27:59;;;;;;;6.27;4.70;;;21.10;1.00;;;;;;6340015;22;20392;-58
2023/08/25 06:30:26;;;;;;;6.03;4.70;;;21.20;1.00;;;;;;6340601;22;20222;-59
2023/08/25 06:32:52;;;;;;;6.63;4.87;;;21.10;1.00;;;;;;6314322;22;20542;-56
2023/08/25 06:35:18;;;;;;;6.80;5.50;;;21.10;1.00;;;;;;6313895;22;20405;-59
2023/08/25 06:37:47;;;;;;;6.07;4.93;;;21.10;1.00;;;;;;6342576;22;20346;-59
2023/08/25 06:40:13;;;;;;;9.23;5.40;;;21.10;1.00;;;;;;6313294;22;20429;-58
2023/08/25 06:42:38;;;;;;;11.90;6.17;;;21.10;1.00;;;;;;6341577;22;20465;-58
2023/08/25 06:45:08;;;;;;;7.37;5.73;;;21.20;1.00;;;;;;6339740;22;20167;-57
2023/08/25 06:47:40;;;;;;;7.70;6.00;;;21.10;1.00;;;;;;6339330;22;20238;-57
2023/08/25 06:50:10;;;;;;;9.97;5.63;;;21.10;1.00;;;;;;6337966;22;20385;-57
2023/08/25 06:52:36;;;;;;;5.23;4.73;;;21.00;1.00;;;;;;6340454;22;20645;-57
2023/08/25 06:55:02;;;;;;;6.53;5.80;;;21.00;1.00;;;;;;6340075;22;20424;-62
2023/08/25 06:57:28;;;;;;;5.73;5.10;;;20.90;1.00;;;;;;6341039;22;20211;-58
2023/08/25 06:59:54;;;;;;;7.10;5.77;;;20.80;40.90;;;;;;6341495;22;20847;-57
2023/08/25 07:02:20;;;;;;;7.77;5.00;;;20.80;42.50;;;;;;6342178;22;20131;-58
2023/08/25 07:04:45;;;;;;;5.63;5.13;;;20.80;48.20;;;;;;6341327;22;20170;-58
2023/08/25 07:07:11;;;;;;;6.30;5.50;;;20.80;13.20;;;;;;6341098;22;20242;-58
2023/08/25 07:09:37;;;;;;;5.20;4.70;;;20.80;48.80;;;;;;6341108;22;20198;-57
2023/08/25 07:12:04;;;;;;;7.53;5.33;;;20.70;99.90;;;;;;6341242;22;20158;-57
2023/08/25 07:14:31;;;;;;;5.53;5.03;;;20.70;99.90;;;;;;6342091;22;20178;-58
2023/08/25 07:16:58;;;;;;;5.93;5.17;;;20.60;99.90;;;;;;6341990;22;20445;-58
2023/08/25 07:19:25;;;;;;;6.67;5.97;;;20.60;99.90;;;;;;6342540;22;20384;-57
2023/08/25 07:21:54;;;;;;;6.00;5.40;;;20.50;99.90;;;;;;6339564;22;20400;-58
2023/08/25 07:24:20;;;;;;;9.27;5.80;;;20.50;99.90;;;;;;6338415;22;20393;-57
2023/08/25 07:26:46;;;;;;;6.03;5.40;;;20.40;99.90;;;;;;6339462;22;20378;-58
2023/08/25 07:29:11;;;;;;;7.00;6.27;;;20.30;99.90;;;;;;6340067;22;20439;-57
2023/08/25 07:31:37;;;;;;;7.33;5.57;;;20.10;99.90;;;;;;6340364;22;20135;-57
2023/08/25 07:34:03;;;;;;;5.50;5.00;;;20.10;99.90;;;;;;6340547;22;20555;-57
2023/08/25 07:36:29;;;;;;;6.30;5.07;;;20.10;99.90;;;;;;6313474;22;20590;-58
2023/08/25 07:38:55;;;;;;;7.53;5.23;;;20.20;99.90;;;;;;6312144;22;20209;-57
2023/08/25 07:41:21;;;;;;;6.63;4.63;;;20.30;99.90;;;;;;6311317;22;20378;-56
2023/08/25 07:43:48;;;;;;;7.10;5.73;;;20.30;99.90;;;;;;6339171;22;20210;-58
2023/08/25 07:46:14;;;;;;;6.13;5.10;;;20.20;99.90;;;;;;6338375;22;20447;-58
2023/08/25 07:48:40;;;;;;;5.50;4.77;;;20.20;99.90;;;;;;6339214;22;20700;-56
2023/08/25 07:51:06;;;;;;;4.97;4.47;;;20.10;99.90;;;;;;6310558;22;20416;-58
2023/08/25 07:53:31;;;;;;;4.57;4.07;;;20.10;99.90;;;;;;6337095;22;20266;-57
2023/08/25 07:55:58;;;;;;;8.20;4.10;;;20.10;99.90;;;;;;6336847;22;20173;-57
2023/08/25 07:58:24;;;;;;;5.07;4.30;;;20.10;99.90;;;;;;6336692;22;20387;-57
2023/08/25 08:00:50;;;;;;;5.23;4.00;;;20.10;99.90;;;;;;6309274;22;20377;-57
2023/08/25 08:03:16;;;;;;;4.47;4.07;;;20.10;99.90;;;;;;6336877;22;20388;-58
2023/08/25 08:05:42;;;;;;;5.00;4.30;;;20.10;99.90;;;;;;6337146;22;20151;-57
2023/08/25 08:08:09;;;;;;;6.70;4.43;;;20.20;99.90;;;;;;6336716;22;20357;-58
2023/08/25 08:10:36;;;;;;;4.60;3.60;;;20.20;99.90;;;;;;6338282;22;20368;-57
2023/08/25 08:13:02;;;;;;;5.60;3.80;;;20.20;99.90;;;;;;6310798;22;20386;-56
2023/08/25 08:15:28;;;;;;;4.50;3.70;;;20.20;99.90;;;;;;6337611;22;20836;-57
2023/08/25 08:17:55;;;;;;;5.53;4.10;;;20.20;99.90;;;;;;6336877;22;20381;-58
2023/08/25 08:20:23;;;;;;;4.37;3.97;;;20.10;99.90;;;;;;6310341;22;20154;-53
2023/08/25 08:22:49;;;;;;;8.60;4.30;;;20.10;99.90;;;;;;6338895;22;20357;-57
2023/08/25 08:25:14;;;;;;;4.53;4.13;;;20.00;99.90;;;;;;6337671;22;20385;-56
2023/08/25 08:27:41;;;;;;;4.87;4.47;;;20.00;99.90;;;;;;6337810;22;20576;-57
2023/08/25 08:30:08;;;;;;;4.93;4.50;;;19.90;99.90;;;;;;6337729;22;20163;-56
2023/08/25 08:32:35;;;;;;;7.57;5.13;;;19.80;99.90;;;;;;6335859;22;20385;-57
2023/08/25 08:35:07;;;;;;;5.67;5.07;;;19.80;99.90;;;;;;6336255;22;20417;-57
2023/08/25 08:37:33;;;;;;;4.77;4.30;;;19.80;99.90;;;;;;6338452;22;20656;-57
2023/08/25 08:39:58;;;;;;;5.10;4.17;;;19.90;99.90;;;;;;6278745;22;1346518;-58
2023/08/25 08:42:24;;;;;;;6.33;4.10;;;20.00;99.90;;;;;;6337442;22;20585;-57
2023/08/25 08:44:50;;;;;;;5.90;4.33;;;20.10;99.90;;;;;;6337830;22;20151;-57
2023/08/25 08:47:17;;;;;;;5.30;4.23;;;20.30;99.90;;;;;;6337126;22;20642;-57
2023/08/25 08:49:44;;;;;;;6.93;5.00;;;20.40;99.90;;;;;;6309011;22;20219;-57
2023/08/25 08:52:10;;;;;;;5.97;4.70;;;20.50;99.90;;;;;;6339309;22;20381;-57
2023/08/25 08:54:37;;;;;;;10.37;4.70;;;20.50;99.90;;;;;;6339700;22;20855;-57
2023/08/25 08:57:04;;;;;;;5.50;4.23;;;20.60;99.90;;;;;;6340337;22;20800;-58
2023/08/25 08:59:30;;;;;;;7.17;4.30;;;20.60;99.90;;;;;;6312287;22;20389;-58
2023/08/25 09:01:57;;;;;;;4.90;4.10;;;20.60;99.90;;;;;;6340049;22;20445;-58
2023/08/25 09:04:24;;;;;;;5.30;4.90;;;20.60;99.90;;;;;;6311746;22;20377;-58
2023/08/25 09:06:51;;;;;;;5.87;3.90;;;20.70;99.90;;;;;;6338192;22;20692;-55
2023/08/25 09:09:19;;;;;;;5.50;4.00;;;20.70;99.90;;;;;;6338731;22;20374;-58
2023/08/25 09:11:50;;;;;;;5.00;4.60;;;20.70;99.90;;;;;;6339802;22;20381;-56
2023/08/25 09:14:27;;;;;;;7.40;4.70;;;20.70;99.90;;;;;;6340057;22;20488;-54
2023/08/25 09:16:57;;;;;;;4.70;4.27;;;20.80;99.90;;;;;;6339822;22;20361;-57
2023/08/25 09:19:23;;;;;;;5.20;4.70;;;20.90;99.90;;;;;;6338571;22;20385;-57
2023/08/25 09:21:49;;;;;;;4.77;4.37;;;21.00;99.90;;;;;;6339472;22;20432;-57
2023/08/25 09:24:19;;;;;;;6.33;4.43;;;21.20;99.90;;;;;;6338209;22;20653;-57
2023/08/25 09:26:46;;;;;;;4.73;4.30;;;21.40;96.30;;;;;;6339355;22;20152;-58
2023/08/25 09:29:12;;;;;;;7.03;4.60;;;21.60;15.50;;;;;;6337369;22;20350;-57
2023/08/25 09:31:37;;;;;;;9.07;4.80;;;21.70;13.60;;;;;;6338283;22;20820;-56
2023/08/25 09:34:06;;;;;;;5.13;4.40;;;21.80;1.00;;;;;;6310249;22;20413;-57
2023/08/25 09:36:33;;;;;;;7.43;4.50;;;22.00;1.00;;;;;;6337008;22;20152;-56
2023/08/25 09:39:07;;;;;;;4.87;4.37;;;22.00;1.00;;;;;;6335684;22;20429;-57
2023/08/25 09:41:33;;;;;;;5.03;4.47;;;22.10;1.00;;;;;;6337836;22;20484;-57
2023/08/25 09:44:01;;;;;;;5.50;4.17;;;22.10;1.00;;;;;;6309801;22;20407;-57
2023/08/25 09:46:30;;;;;;;5.07;4.23;;;21.90;1.00;;;;;;6337956;22;20377;-56
2023/08/25 09:49:07;;;;;;;4.47;3.90;;;21.80;1.00;;;;;;6336242;22;20382;-57
2023/08/25 09:51:37;;;;;;;5.50;4.03;;;21.90;19.10;;;;;;6336964;22;20457;-56
2023/08/25 09:54:16;;;;;;;4.50;4.03;;;22.00;1.00;;;;;;6337345;22;20460;-58
2023/08/25 09:56:44;;;;;;;4.63;3.90;;;22.10;1.00;;;;;;6337241;22;20509;-57
2023/08/25 09:59:11;;;;;;;4.90;4.43;;;22.20;1.00;;;;;;6337528;22;20393;-56
2023/08/25 10:01:39;;;;;;;4.80;4.30;;;21.90;1.00;;;;;;6337128;22;20389;-58
2023/08/25 10:04:05;;;;;;;4.87;4.47;;;21.80;1.00;;;;;;6335943;22;21003;-56
2023/08/25 10:06:32;;;;;;;5.27;4.10;;;21.70;41.40;;;;;;6336746;22;20413;-58
2023/08/25 10:08:59;;;;;;;5.20;4.33;;;21.80;9.60;;;;;;6336854;22;20377;-57
2023/08/25 10:11:39;;;;;;;4.10;3.63;;;21.90;1.00;;;;;;6309211;22;20418;-54
2023/08/25 10:14:14;;;;;;;3.97;3.63;;;22.00;1.00;;;;;;6338230;22;20911;-58
2023/08/25 10:16:52;;;;;;;5.47;4.60;;;22.20;1.00;;;;;;6339143;22;20357;-57
2023/08/25 10:19:28;;;;;;;3.97;3.53;;;22.50;1.00;;;;;;6341561;22;20388;-55
2023/08/25 10:21:55;;;;;;;4.10;3.73;;;22.60;99.90;;;;;;6341531;22;20381;-57
2023/08/25 10:24:22;;;;;;;4.77;4.27;;;22.70;99.90;;;;;;6339498;22;20832;-57
2023/08/25 10:26:54;;;;;;;4.13;3.73;;;22.70;99.90;;;;;;6339253;22;20388;-57
2023/08/25 10:29:25;;;;;;;4.10;3.70;;;22.50;99.90;;;;;;6339758;22;20411;-57
2023/08/25 10:32:00;;;;;;;3.70;3.40;;;22.50;99.90;;;;;;6313353;22;20361;-56
2023/08/25 10:34:46;;;;;;;4.53;3.83;;;22.40;1.00;;;;;;6338237;22;20420;-56
2023/08/25 10:37:25;;;;;;;4.40;4.00;;;22.40;99.90;;;;;;6340320;22;20381;-56
2023/08/25 10:39:59;;;;;;;4.53;4.13;;;22.30;99.90;;;;;;6341712;22;20421;-55
2023/08/25 10:42:30;;;;;;;5.73;4.33;;;22.20;1.00;;;;;;6341931;22;20427;-57
2023/08/25 10:45:01;;;;;;;5.60;5.17;;;22.10;1.00;;;;;;6313446;22;20385;-52
2023/08/25 10:47:27;;;;;;;5.40;4.90;;;22.10;1.00;;;;;;6340405;22;20366;-56
2023/08/25 10:49:54;;;;;;;5.30;4.40;;;22.10;1.00;;;;;;6342126;22;20365;-56
2023/08/25 10:52:20;;;;;;;5.30;4.80;;;22.30;99.90;;;;;;6343381;22;20381;-56
2023/08/25 10:54:46;;;;;;;4.67;4.27;;;22.40;99.90;;;;;;6340854;22;20726;-52
2023/08/25 10:57:19;;;;;;;6.20;4.83;;;22.50;99.90;;;;;;6340050;22;20438;-54
2023/08/25 10:59:54;;;;;;;4.97;4.50;;;22.60;99.90;;;;;;6342011;22;20446;-55
2023/08/25 11:02:36;;;;;;;4.77;4.30;;;22.80;99.90;;;;;;6313314;22;20695;-55
2023/08/25 11:05:39;;;;;;;5.57;5.10;;;23.00;99.90;;;;;;6339133;22;20365;-55
2023/08/25 11:08:25;;;;;;;4.40;4.00;;;23.00;99.90;;;;;;6184541;23;20390;-56
2023/08/25 11:11:14;;;;;;;4.90;4.50;;;22.90;99.90;;;;;;6332687;22;20831;-56
2023/08/25 11:13:41;;;;;;;6.17;5.67;;;23.00;99.90;;;;;;6339537;22;20578;-57
2023/08/25 11:16:10;;;;;;;5.93;5.33;;;22.90;99.90;;;;;;6336335;22;20377;-56
2023/08/25 11:18:38;;;;;;;6.50;5.53;;;22.80;99.90;;;;;;6338670;22;20377;-57
2023/08/25 11:21:04;;;;;;;5.97;5.47;;;22.90;99.90;;;;;;6339183;22;20377;-56
2023/08/25 11:23:37;;;;;;;5.53;5.00;;;23.00;99.90;;;;;;6338938;22;20382;-56
2023/08/25 11:26:02;;;;;;;6.00;5.40;;;23.20;99.90;;;;;;6339851;22;20634;-57
2023/08/25 11:28:28;;;;;;;7.13;5.97;;;23.40;99.90;;;;;;6311034;22;20410;-55
2023/08/25 11:30:56;;;;;;;6.30;5.80;;;23.60;51.10;;;;;;6307061;22;20794;-57
2023/08/25 11:33:24;;;;;;;6.37;5.60;;;23.60;1.00;;;;;;6334865;22;20711;-57
2023/08/25 11:35:50;;;;;;;6.60;6.00;;;23.60;99.90;;;;;;6336514;22;20392;-56
2023/08/25 11:38:16;;;;;;;6.87;6.17;;;23.60;96.60;;;;;;6339751;22;20382;-56
2023/08/25 11:40:41;;;;;;;6.83;6.23;;;23.70;99.90;;;;;;6312452;22;20191;-56
2023/08/25 11:43:07;;;;;;;6.90;5.70;;;23.70;16.00;;;;;;6341334;22;20151;-58
2023/08/25 11:45:33;;;;;;;6.30;5.80;;;23.70;36.00;;;;;;6337992;22;20151;-57
2023/08/25 11:47:58;;;;;;;6.33;5.73;;;23.70;3.90;;;;;;6339756;22;20616;-56
2023/08/25 11:50:25;;;;;;;6.47;5.90;;;23.70;1.00;;;;;;6339014;22;20369;-55
2023/08/25 11:52:51;;;;;;;6.27;5.73;;;23.70;99.90;;;;;;6338301;22;20166;-56
2023/08/25 11:55:20;;;;;;;7.70;6.20;;;24.00;99.90;;;;;;6335966;22;20524;-56
2023/08/25 11:57:50;;;;;;;7.97;5.70;;;24.30;23.60;;;;;;6337609;22;20386;-58
2023/08/25 12:00:16;;;;;;;7.53;6.83;;;24.50;1.00;;;;;;6337126;22;20381;-56
2023/08/25 12:02:42;;;;;;;6.40;5.50;;;24.90;99.90;;;;;;6310940;22;20385;-55
2023/08/25 12:05:08;;;;;;;6.23;5.73;;;25.30;1.00;;;;;;6337332;22;20400;-56
2023/08/25 12:07:37;;;;;;;7.17;6.50;;;25.50;1.00;;;;;;6311669;22;20254;-56
2023/08/25 12:10:05;;;;;;;7.80;5.50;;;25.50;80.70;;;;;;6311470;22;20163;-56
2023/08/25 12:12:32;;;;;;;6.50;6.00;;;25.40;99.90;;;;;;6285882;22;20465;-56
2023/08/25 12:14:58;;;;;;;7.83;5.20;;;25.20;99.90;;;;;;6311547;22;20444;-57
2023/08/25 12:17:27;;;;;;;6.77;6.17;;;25.20;1.00;;;;;;6340168;22;20386;-57
2023/08/25 12:19:54;;;;;;;7.97;5.97;;;25.10;1.00;;;;;;6340883;22;20250;-56
2023/08/25 12:22:20;;;;;;;8.10;5.43;;;25.00;99.90;;;;;;6311090;22;20394;-58
2023/08/25 12:24:46;;;;;;;7.87;6.73;;;24.90;1.00;;;;;;6338762;22;20357;-57
2023/08/25 12:27:13;;;;;;;7.03;5.67;;;24.80;1.00;;;;;;6312519;22;20166;-57
2023/08/25 12:29:39;;;;;;;7.10;6.40;;;24.70;1.00;;;;;;6339584;22;20389;-56
2023/08/25 12:32:07;;;;;;;9.73;6.17;;;24.70;99.90;;;;;;6337482;22;20390;-57
2023/08/25 12:34:34;;;;;;;6.10;5.63;;;24.70;99.90;;;;;;6336638;22;20811;-57
2023/08/25 12:37:01;;;;;;;7.47;5.93;;;24.60;10.40;;;;;;6338867;22;20354;-57
2023/08/25 12:39:26;;;;;;;7.40;5.90;;;24.60;99.90;;;;;;6338407;22;20417;-58
2023/08/25 12:41:52;;;;;;;7.93;6.30;;;24.70;61.10;;;;;;6340499;22;20444;-55
2023/08/25 12:44:18;;;;;;;6.90;5.57;;;24.70;1.00;;;;;;6339687;22;20155;-57
2023/08/25 12:46:43;;;;;;;7.10;6.40;;;24.80;99.90;;;;;;6339246;22;20182;-54
2023/08/25 12:49:09;;;;;;;7.73;6.13;;;24.90;1.00;;;;;;6340219;22;20198;-57
2023/08/25 12:51:35;;;;;;;6.67;6.07;;;24.90;1.00;;;;;;6338722;22;20525;-58